createdAt,value
2023-03-20T00:00:36.110Z,325.867
2023-03-20T00:02:16.395Z,325.867
2023-03-20T00:03:56.727Z,325.833
2023-03-20T00:05:37.267Z,325.867
2023-03-20T00:07:17.300Z,325.867
2023-03-20T00:08:57.580Z,325.867
2023-03-20T00:10:37.856Z,325.867
2023-03-20T00:12:18.189Z,325.833
2023-03-20T00:13:58.470Z,325.867
2023-03-20T00:15:38.747Z,325.833
2023-03-20T00:17:19.074Z,325.867
2023-03-20T00:18:59.379Z,325.883
2023-03-20T00:20:39.643Z,325.867
2023-03-20T00:22:19.978Z,325.883
2023-03-20T00:24:00.268Z,325.883
2023-03-20T00:25:40.712Z,325.883
2023-03-20T00:27:21.144Z,325.883
2023-03-20T00:29:01.577Z,325.883
2023-03-20T00:30:42.031Z,325.867
2023-03-20T00:32:22.426Z,325.883
2023-03-20T00:34:02.867Z,325.867
2023-03-20T00:35:43.385Z,325.883
2023-03-20T00:37:23.709Z,325.883
2023-03-20T00:39:04.149Z,325.883
2023-03-20T00:40:44.508Z,325.883
2023-03-20T00:42:24.849Z,325.883
2023-03-20T00:44:05.243Z,325.883
2023-03-20T00:45:45.619Z,325.883
2023-03-20T00:47:26.050Z,325.883
2023-03-20T00:49:06.512Z,325.867
2023-03-20T00:50:46.960Z,325.883
2023-03-20T00:52:27.350Z,325.9
2023-03-20T00:54:07.645Z,325.867
2023-03-20T00:55:47.954Z,325.9
2023-03-20T00:57:28.293Z,325.933
2023-03-20T00:59:08.557Z,325.9
2023-03-20T01:00:48.878Z,325.9
2023-03-20T01:02:29.409Z,325.933
2023-03-20T01:04:09.518Z,325.9
2023-03-20T01:05:49.767Z,325.9
2023-03-20T01:07:30.141Z,325.933
2023-03-20T01:09:10.435Z,325.9
2023-03-20T01:10:50.732Z,325.9
2023-03-20T01:12:31.024Z,325.9
2023-03-20T01:14:11.420Z,325.9
2023-03-20T01:15:51.790Z,325.9
2023-03-20T01:17:32.225Z,325.9
2023-03-20T01:19:12.611Z,325.9
2023-03-20T01:20:53.102Z,325.933
2023-03-20T01:22:33.502Z,325.9
2023-03-20T01:24:13.908Z,325.933
2023-03-20T01:25:54.386Z,325.883
2023-03-20T01:27:34.876Z,325.983
2023-03-20T01:29:15.287Z,325.95
2023-03-20T01:30:55.698Z,325.933
2023-03-20T01:32:36.157Z,325.95
2023-03-20T01:34:16.696Z,325.933
2023-03-20T01:35:57.036Z,325.933
2023-03-20T01:37:37.435Z,325.95
2023-03-20T01:39:17.727Z,325.933
2023-03-20T01:40:58.104Z,325.933
2023-03-20T01:42:38.539Z,325.95
2023-03-20T01:44:18.907Z,325.95
2023-03-20T01:45:59.334Z,325.933
2023-03-20T01:47:39.669Z,325.933
2023-03-20T01:49:20.100Z,325.95
2023-03-20T01:51:00.538Z,325.933
2023-03-20T01:52:40.865Z,325.933
2023-03-20T01:54:21.249Z,325.95
2023-03-20T01:56:01.758Z,325.933
2023-03-20T01:57:42.163Z,325.95
2023-03-20T01:59:22.656Z,325.95
2023-03-20T02:01:03.113Z,325.933
2023-03-20T02:02:43.426Z,325.933
2023-03-20T02:04:23.943Z,325.9
2023-03-20T02:06:04.224Z,325.95
2023-03-20T02:07:44.559Z,326.033
2023-03-20T02:09:24.994Z,325.983
2023-03-20T02:11:05.352Z,326
2023-03-20T02:12:45.746Z,326
2023-03-20T02:14:26.056Z,326
2023-03-20T02:16:06.374Z,326
2023-03-20T02:17:46.643Z,326
2023-03-20T02:19:26.932Z,326.033
2023-03-20T02:21:07.234Z,326
2023-03-20T02:22:47.691Z,326
2023-03-20T02:24:28.043Z,326.033
2023-03-20T02:26:08.459Z,326.033
2023-03-20T02:27:48.801Z,325.983
2023-03-20T02:29:29.213Z,326
2023-03-20T02:31:09.685Z,326.033
2023-03-20T02:32:50.071Z,326
2023-03-20T02:34:30.399Z,326
2023-03-20T02:36:10.966Z,326
2023-03-20T02:37:51.288Z,326
2023-03-20T02:39:31.646Z,326.033
2023-03-20T02:41:12.104Z,326
2023-03-20T02:42:52.489Z,326
2023-03-20T02:44:32.895Z,326.033
2023-03-20T02:46:13.307Z,326.033
2023-03-20T02:47:53.548Z,326
2023-03-20T02:49:33.973Z,326.05
2023-03-20T02:51:14.335Z,326.05
2023-03-20T02:52:54.717Z,326.033
2023-03-20T02:54:35.117Z,326.05
2023-03-20T02:56:15.524Z,326.033
2023-03-20T02:57:55.941Z,326.033
2023-03-20T02:59:36.323Z,326.05
2023-03-20T03:01:16.674Z,326.033
2023-03-20T03:02:56.945Z,326.05
2023-03-20T03:04:37.270Z,326.05
2023-03-20T03:06:17.617Z,326.05
2023-03-20T03:07:58.091Z,326.05
2023-03-20T03:09:38.450Z,326.05
2023-03-20T03:11:18.848Z,326.05
2023-03-20T03:12:59.220Z,326.05
2023-03-20T03:14:39.608Z,326.05
2023-03-20T03:16:19.933Z,326.05
2023-03-20T03:18:00.332Z,326.067
2023-03-20T03:19:40.688Z,326.067
2023-03-20T03:21:21.175Z,326.067
2023-03-20T03:23:01.667Z,326.067
2023-03-20T03:24:42.165Z,326.067
2023-03-20T03:26:22.449Z,326.067
2023-03-20T03:28:02.816Z,326.067
2023-03-20T03:29:43.228Z,326.1
2023-03-20T03:31:23.639Z,326.067
2023-03-20T03:33:04.077Z,326.067
2023-03-20T03:34:44.405Z,326.067
2023-03-20T03:36:24.850Z,326.067
2023-03-20T03:38:05.201Z,326.067
2023-03-20T03:39:45.504Z,326.067
2023-03-20T03:41:25.791Z,326.1
2023-03-20T03:43:06.114Z,326.1
2023-03-20T03:44:46.407Z,326.067
2023-03-20T03:46:26.749Z,326.067
2023-03-20T03:48:06.976Z,326.067
2023-03-20T03:49:47.253Z,326.05
2023-03-20T03:51:27.559Z,326.067
2023-03-20T03:53:07.865Z,326.067
2023-03-20T03:54:48.196Z,326.067
2023-03-20T03:56:28.462Z,326.1
2023-03-20T03:58:08.782Z,326.117
2023-03-20T03:59:49.091Z,326.067
2023-03-20T04:01:29.488Z,326.1
2023-03-20T04:03:09.704Z,326.117
2023-03-20T04:04:50.238Z,326.117
2023-03-20T04:06:30.602Z,326.117
2023-03-20T04:08:11.041Z,326.117
2023-03-20T04:09:51.409Z,326.117
2023-03-20T04:11:31.784Z,326.1
2023-03-20T04:13:12.142Z,326.117
2023-03-20T04:14:52.550Z,326.117
2023-03-20T04:16:33.004Z,326.1
2023-03-20T04:18:13.332Z,326.1
2023-03-20T04:19:53.726Z,326.117
2023-03-20T04:21:34.185Z,326.117
2023-03-20T04:23:14.583Z,326.117
2023-03-20T04:24:55.019Z,326.1
2023-03-20T04:26:35.358Z,326.117
2023-03-20T04:28:15.793Z,326.1
2023-03-20T04:29:56.174Z,326.1
2023-03-20T04:31:36.610Z,326.117
2023-03-20T04:33:16.953Z,326.117
2023-03-20T04:34:57.329Z,326.117
2023-03-20T04:36:37.732Z,326.117
2023-03-20T04:38:18.013Z,326.167
2023-03-20T04:39:58.313Z,326.15
2023-03-20T04:41:38.613Z,326.15
2023-03-20T04:43:18.887Z,326.117
2023-03-20T04:44:59.208Z,326.15
2023-03-20T04:46:39.502Z,326.15
2023-03-20T04:48:19.820Z,326.15
2023-03-20T04:50:00.095Z,326.15
2023-03-20T04:51:40.425Z,326.167
2023-03-20T04:53:20.716Z,326.15
2023-03-20T04:55:01.163Z,326.15
2023-03-20T04:56:41.510Z,326.167
2023-03-20T04:58:21.936Z,326.15
2023-03-20T05:00:02.362Z,326.2
2023-03-20T05:01:42.748Z,326.167
2023-03-20T05:03:24.131Z,326.2
2023-03-20T05:05:03.515Z,326.167
2023-03-20T05:06:43.896Z,326.167
2023-03-20T05:08:24.377Z,326.2
2023-03-20T05:10:04.764Z,326.2
2023-03-20T05:11:45.136Z,326.2
2023-03-20T05:13:25.600Z,326.2
2023-03-20T05:15:06.033Z,326.2
2023-03-20T05:16:46.578Z,326.2
2023-03-20T05:18:26.908Z,326.2
2023-03-20T05:20:07.309Z,326.167
2023-03-20T05:21:47.692Z,326.2
2023-03-20T05:23:28.072Z,326.167
2023-03-20T05:25:08.405Z,326.167
2023-03-20T05:26:48.692Z,326.2
2023-03-20T05:28:29.031Z,326.167
2023-03-20T05:30:09.319Z,326.2
2023-03-20T05:31:49.611Z,326.267
2023-03-20T05:33:29.920Z,326.233
2023-03-20T05:35:10.245Z,326.217
2023-03-20T05:36:50.702Z,326.2
2023-03-20T05:38:31.041Z,326.233
2023-03-20T05:40:11.441Z,326.217
2023-03-20T05:41:51.757Z,326.233
2023-03-20T05:43:32.130Z,326.233
2023-03-20T05:45:12.577Z,326.167
2023-03-20T05:46:52.955Z,326.233
2023-03-20T05:48:33.355Z,326.233
2023-03-20T05:50:13.781Z,326.233
2023-03-20T05:51:54.146Z,326.233
2023-03-20T05:53:34.560Z,326.233
2023-03-20T05:55:14.904Z,326.283
2023-03-20T05:56:57.231Z,326.233
2023-03-20T05:58:35.634Z,326.267
2023-03-20T06:00:16.015Z,326.267
2023-03-20T06:01:56.409Z,326.267
2023-03-20T06:03:36.802Z,326.233
2023-03-20T06:05:17.137Z,326.233
2023-03-20T06:06:57.565Z,326.233
2023-03-20T06:08:37.983Z,326.267
2023-03-20T06:10:18.346Z,326.233
2023-03-20T06:11:58.718Z,326.217
2023-03-20T06:13:39.109Z,326.233
2023-03-20T06:15:19.410Z,326.233
2023-03-20T06:16:59.723Z,326.233
2023-03-20T06:18:40.009Z,326.233
2023-03-20T06:20:20.388Z,326.217
2023-03-20T06:22:00.883Z,326.267
2023-03-20T06:23:41.216Z,326.283
2023-03-20T06:25:21.552Z,326.283
2023-03-20T06:27:02.003Z,326.283
2023-03-20T06:28:42.401Z,326.267
2023-03-20T06:30:22.792Z,326.267
2023-03-20T06:32:03.217Z,326.283
2023-03-20T06:33:43.665Z,326.283
2023-03-20T06:35:24.143Z,326.283
2023-03-20T06:37:04.498Z,326.283
2023-03-20T06:38:44.924Z,326.283
2023-03-20T06:40:25.273Z,326.267
2023-03-20T06:42:05.702Z,326.283
2023-03-20T06:43:46.095Z,326.283
2023-03-20T06:45:26.535Z,326.283
2023-03-20T06:47:06.916Z,326.267
2023-03-20T06:48:47.331Z,326.267
2023-03-20T06:50:27.682Z,326.283
2023-03-20T06:52:08.048Z,326.283
2023-03-20T06:53:48.486Z,326.283
2023-03-20T06:55:28.731Z,326.283
2023-03-20T06:57:09.106Z,326.317
2023-03-20T06:58:49.572Z,326.317
2023-03-20T07:00:29.912Z,326.283
2023-03-20T07:02:10.465Z,326.283
2023-03-20T07:03:50.842Z,326.317
2023-03-20T07:05:31.242Z,326.333
2023-03-20T07:07:11.654Z,326.317
2023-03-20T07:08:52.091Z,326.333
2023-03-20T07:10:32.537Z,326.333
2023-03-20T07:12:12.981Z,326.317
2023-03-20T07:13:53.398Z,326.317
2023-03-20T07:15:33.937Z,326.283
2023-03-20T07:17:14.089Z,326.283
2023-03-20T07:18:54.400Z,326.333
2023-03-20T07:20:34.793Z,326.317
2023-03-20T07:22:15.178Z,326.317
2023-03-20T07:23:55.617Z,326.317
2023-03-20T07:25:42.905Z,326.333
2023-03-20T07:27:16.341Z,326.333
2023-03-20T07:28:56.710Z,326.317
2023-03-20T07:30:37.125Z,326.333
2023-03-20T07:32:17.487Z,326.333
2023-03-20T07:33:57.904Z,326.317
2023-03-20T07:35:38.552Z,326.333
2023-03-20T07:37:18.803Z,326.333
2023-03-20T07:38:59.167Z,326.333
2023-03-20T07:40:39.645Z,326.333
2023-03-20T07:42:20.020Z,326.367
2023-03-20T07:44:00.485Z,326.333
2023-03-20T07:45:40.928Z,326.333
2023-03-20T07:47:21.346Z,326.333
2023-03-20T07:49:01.770Z,326.333
2023-03-20T07:50:42.127Z,326.333
2023-03-20T07:52:22.581Z,326.367
2023-03-20T07:54:03.010Z,326.333
2023-03-20T07:55:43.421Z,326.317
2023-03-20T07:57:23.840Z,326.317
2023-03-20T07:59:04.219Z,326.333
2023-03-20T08:00:44.714Z,326.367
2023-03-20T08:02:25.084Z,326.317
2023-03-20T08:04:05.724Z,326.333
2023-03-20T08:05:47.606Z,326.333
2023-03-20T08:07:26.351Z,326.367
2023-03-20T08:09:06.766Z,326.383
2023-03-20T08:10:47.181Z,326.333
2023-03-20T08:12:27.560Z,326.383
2023-03-20T08:14:07.971Z,326.4
2023-03-20T08:15:48.354Z,326.367
2023-03-20T08:17:28.893Z,326.383
2023-03-20T08:19:09.189Z,326.383
2023-03-20T08:20:49.483Z,326.383
2023-03-20T08:22:29.914Z,326.367
2023-03-20T08:24:10.347Z,326.383
2023-03-20T08:25:50.686Z,326.383
2023-03-20T08:27:31.190Z,326.367
2023-03-20T08:29:11.573Z,326.383
2023-03-20T08:30:52.067Z,326.367
2023-03-20T08:32:32.408Z,326.383
2023-03-20T08:34:12.858Z,326.367
2023-03-20T08:35:53.282Z,326.383
2023-03-20T08:37:33.722Z,326.383
2023-03-20T08:39:14.196Z,326.383
2023-03-20T08:40:54.638Z,326.383
2023-03-20T08:42:35.066Z,326.433
2023-03-20T08:44:15.508Z,326.383
2023-03-20T08:45:56.091Z,326.4
2023-03-20T08:47:36.334Z,326.433
2023-03-20T08:49:16.744Z,326.383
2023-03-20T08:50:57.188Z,326.4
2023-03-20T08:52:37.551Z,326.433
2023-03-20T08:54:17.932Z,326.4
2023-03-20T08:55:58.299Z,326.433
2023-03-20T08:57:38.816Z,326.5
2023-03-20T08:59:19.257Z,326.483
2023-03-20T09:00:59.650Z,326.5
2023-03-20T09:02:40.229Z,326.483
2023-03-20T09:04:20.557Z,326.483
2023-03-20T09:06:00.868Z,326.483
2023-03-20T09:07:41.371Z,326.483
2023-03-20T09:09:21.831Z,326.483
2023-03-20T09:11:02.215Z,326.45
2023-03-20T09:12:42.561Z,326.483
2023-03-20T09:14:22.995Z,326.45
2023-03-20T09:16:03.372Z,326.45
2023-03-20T09:17:43.577Z,326.483
2023-03-20T09:19:23.853Z,326.45
2023-03-20T09:21:04.155Z,326.483
2023-03-20T09:22:44.454Z,326.483
2023-03-20T09:24:24.731Z,326.5
2023-03-20T09:26:04.964Z,326.5
2023-03-20T09:27:45.308Z,326.5
2023-03-20T09:29:25.630Z,326.55
2023-03-20T09:31:06.009Z,326.5
2023-03-20T09:32:46.297Z,326.5
2023-03-20T09:34:26.657Z,326.5
2023-03-20T09:36:07.113Z,326.5
2023-03-20T09:37:47.534Z,326.5
2023-03-20T09:39:28.006Z,326.5
2023-03-20T09:41:08.478Z,326.5
2023-03-20T09:42:48.834Z,326.5
2023-03-20T09:44:29.240Z,326.517
2023-03-20T09:46:09.782Z,326.517
2023-03-20T09:47:50.078Z,326.5
2023-03-20T09:49:30.465Z,326.5
2023-03-20T09:51:10.856Z,326.55
2023-03-20T09:52:51.238Z,326.517
2023-03-20T09:54:43.409Z,326.5
2023-03-20T09:56:12.078Z,326.55
2023-03-20T09:57:52.467Z,326.55
2023-03-20T09:59:32.779Z,326.55
2023-03-20T10:01:13.075Z,326.55
2023-03-20T10:02:53.390Z,326.517
2023-03-20T10:04:33.785Z,326.55
2023-03-20T10:06:14.193Z,326.55
2023-03-20T10:07:54.600Z,326.55
2023-03-20T10:09:35.013Z,326.55
2023-03-20T10:11:15.390Z,326.517
2023-03-20T10:12:55.813Z,326.55
2023-03-20T10:14:36.278Z,326.55
2023-03-20T10:16:16.680Z,326.55
2023-03-20T10:17:57.014Z,326.55
2023-03-20T10:19:37.440Z,326.567
2023-03-20T10:21:17.863Z,326.55
2023-03-20T10:22:58.263Z,326.55
2023-03-20T10:24:38.666Z,326.567
2023-03-20T10:26:19.127Z,326.6
2023-03-20T10:27:59.562Z,326.55
2023-03-20T10:29:39.962Z,326.567
2023-03-20T10:31:20.449Z,326.6
2023-03-20T10:33:00.755Z,326.6
2023-03-20T10:34:41.022Z,326.567
2023-03-20T10:36:21.354Z,326.6
2023-03-20T10:38:01.694Z,326.567
2023-03-20T10:39:42.106Z,326.567
2023-03-20T10:41:22.479Z,326.567
2023-03-20T10:43:02.904Z,326.567
2023-03-20T10:44:43.506Z,326.6
2023-03-20T10:46:24.050Z,326.6
2023-03-20T10:48:04.597Z,326.6
2023-03-20T10:49:45.030Z,326.6
2023-03-20T10:51:25.450Z,326.6
2023-03-20T10:53:05.826Z,326.6
2023-03-20T10:54:46.211Z,326.6
2023-03-20T10:56:26.703Z,326.617
2023-03-20T10:58:07.088Z,326.617
2023-03-20T10:59:47.441Z,326.6
2023-03-20T11:01:28.018Z,326.617
2023-03-20T11:03:08.319Z,326.6
2023-03-20T11:04:48.724Z,326.617
2023-03-20T11:06:29.132Z,326.617
2023-03-20T11:08:09.605Z,326.617
2023-03-20T11:09:50.031Z,326.617
2023-03-20T11:11:30.388Z,326.6
2023-03-20T11:13:10.794Z,326.617
2023-03-20T11:14:51.179Z,326.617
2023-03-20T11:16:31.682Z,326.617
2023-03-20T11:18:12.026Z,326.617
2023-03-20T11:19:52.432Z,326.65
2023-03-20T11:21:32.836Z,326.6
2023-03-20T11:23:13.314Z,326.617
2023-03-20T11:24:53.730Z,326.65
2023-03-20T11:26:34.141Z,326.65
2023-03-20T11:28:14.583Z,326.667
2023-03-20T11:29:54.851Z,326.65
2023-03-20T11:31:35.230Z,326.65
2023-03-20T11:33:15.519Z,326.65
2023-03-20T11:34:55.847Z,326.667
2023-03-20T11:36:36.054Z,326.65
2023-03-20T11:38:16.345Z,326.667
2023-03-20T11:39:56.625Z,326.667
2023-03-20T11:41:39.175Z,326.65
2023-03-20T11:43:17.453Z,326.65
2023-03-20T11:44:57.917Z,326.65
2023-03-20T11:46:38.299Z,326.717
2023-03-20T11:48:18.702Z,326.717
2023-03-20T11:49:59.146Z,326.717
2023-03-20T11:51:39.572Z,326.717
2023-03-20T11:53:19.997Z,326.717
2023-03-20T11:55:00.497Z,326.717
2023-03-20T11:56:40.891Z,326.717
2023-03-20T11:58:21.251Z,326.733
2023-03-20T12:00:01.577Z,326.733
2023-03-20T12:01:41.952Z,326.717
2023-03-20T12:03:22.435Z,326.717
2023-03-20T12:05:02.783Z,326.733
2023-03-20T12:06:43.207Z,326.717
2023-03-20T12:08:23.602Z,326.717
2023-03-20T12:10:04.036Z,326.717
2023-03-20T12:11:44.337Z,326.683
2023-03-20T12:13:24.770Z,326.717
2023-03-20T12:15:05.135Z,326.733
2023-03-20T12:16:45.509Z,326.767
2023-03-20T12:18:26.015Z,326.767
2023-03-20T12:20:06.435Z,326.733
2023-03-20T12:21:48.405Z,326.767
2023-03-20T12:23:27.330Z,326.767
2023-03-20T12:25:07.764Z,326.733
2023-03-20T12:26:48.133Z,326.767
2023-03-20T12:28:28.546Z,326.767
2023-03-20T12:30:08.930Z,326.733
2023-03-20T12:31:49.345Z,326.733
2023-03-20T12:33:29.702Z,326.733
2023-03-20T12:35:10.110Z,326.733
2023-03-20T12:36:50.512Z,326.783
2023-03-20T12:38:31.002Z,326.817
2023-03-20T12:40:11.444Z,326.733
2023-03-20T12:41:51.756Z,326.783
2023-03-20T12:43:32.049Z,326.783
2023-03-20T12:45:12.383Z,326.783
2023-03-20T12:46:52.788Z,326.783
2023-03-20T12:48:33.129Z,326.783
2023-03-20T12:50:13.577Z,326.767
2023-03-20T12:51:53.935Z,326.767
2023-03-20T12:53:34.395Z,326.817
2023-03-20T12:55:14.731Z,326.783
2023-03-20T12:56:55.192Z,326.767
2023-03-20T12:58:35.644Z,326.783
2023-03-20T13:00:16.090Z,326.783
2023-03-20T13:01:56.475Z,326.783
2023-03-20T13:03:36.877Z,326.767
2023-03-20T13:05:17.219Z,326.767
2023-03-20T13:06:57.599Z,326.833
2023-03-20T13:08:37.990Z,326.817
2023-03-20T13:10:18.323Z,326.817
2023-03-20T13:11:58.843Z,326.817
2023-03-20T13:13:39.145Z,326.833
2023-03-20T13:15:21.582Z,326.817
2023-03-20T13:16:59.932Z,326.817
2023-03-20T13:18:40.281Z,326.817
2023-03-20T13:20:20.602Z,326.817
2023-03-20T13:22:00.873Z,326.833
2023-03-20T13:23:41.314Z,326.817
2023-03-20T13:25:21.784Z,326.833
2023-03-20T13:27:02.149Z,326.833
2023-03-20T13:28:42.566Z,326.833
2023-03-20T13:30:23.064Z,326.817
2023-03-20T13:32:03.453Z,326.817
2023-03-20T13:33:43.982Z,326.833
2023-03-20T13:35:24.386Z,326.817
2023-03-20T13:37:22.030Z,326.833
2023-03-20T13:38:45.309Z,326.833
2023-03-20T13:40:25.756Z,326.85
2023-03-20T13:42:06.182Z,326.833
2023-03-20T13:43:46.582Z,326.85
2023-03-20T13:45:26.998Z,326.817
2023-03-20T13:47:07.278Z,326.833
2023-03-20T13:48:47.508Z,326.85
2023-03-20T13:50:27.822Z,326.833
2023-03-20T13:52:08.125Z,326.85
2023-03-20T13:53:48.428Z,326.833
2023-03-20T13:55:28.837Z,326.833
2023-03-20T13:57:09.312Z,326.833
2023-03-20T13:58:49.722Z,326.833
2023-03-20T14:00:30.156Z,326.85
2023-03-20T14:02:10.647Z,326.85
2023-03-20T14:03:51.013Z,326.85
2023-03-20T14:05:31.387Z,326.9
2023-03-20T14:07:11.870Z,326.933
2023-03-20T14:08:52.293Z,326.933
2023-03-20T14:10:32.753Z,326.933
2023-03-20T14:12:13.187Z,326.933
2023-03-20T14:13:53.624Z,326.933
2023-03-20T14:15:33.969Z,326.9
2023-03-20T14:17:14.333Z,326.933
2023-03-20T14:18:54.780Z,326.933
2023-03-20T14:20:35.652Z,326.9
2023-03-20T14:22:15.686Z,326.933
2023-03-20T14:23:56.107Z,326.883
2023-03-20T14:25:38.701Z,326.933
2023-03-20T14:27:16.975Z,326.9
2023-03-20T14:28:57.428Z,326.933
2023-03-20T14:30:38.120Z,326.9
2023-03-20T14:32:18.281Z,326.933
2023-03-20T14:33:58.754Z,326.933
2023-03-20T14:35:39.198Z,326.933
2023-03-20T14:37:19.518Z,326.933
2023-03-20T14:38:59.876Z,326.933
2023-03-20T14:40:40.291Z,326.933
2023-03-20T14:42:22.546Z,326.933
2023-03-20T14:44:01.105Z,326.9
2023-03-20T14:45:41.519Z,326.9
2023-03-20T14:47:21.965Z,326.95
2023-03-20T14:49:02.299Z,326.933
2023-03-20T14:50:42.761Z,326.933
2023-03-20T14:52:23.104Z,326.95
2023-03-20T14:54:03.487Z,326.933
2023-03-20T14:55:43.846Z,326.933
2023-03-20T14:57:24.315Z,326.933
2023-03-20T14:59:04.711Z,326.95
2023-03-20T15:00:45.114Z,326.95
2023-03-20T15:02:25.518Z,326.95
2023-03-20T15:04:05.878Z,326.95
2023-03-20T15:05:46.307Z,326.95
2023-03-20T15:07:26.779Z,326.95
2023-03-20T15:09:07.098Z,326.95
2023-03-20T15:10:47.614Z,326.95
2023-03-20T15:12:28.037Z,326.95
2023-03-20T15:14:08.389Z,326.95
2023-03-20T15:15:48.749Z,326.95
2023-03-20T15:17:29.131Z,326.983
2023-03-20T15:19:09.516Z,326.933
2023-03-20T15:20:49.914Z,326.95
2023-03-20T15:22:30.316Z,326.95
2023-03-20T15:24:10.581Z,326.95
2023-03-20T15:25:50.938Z,326.95
2023-03-20T15:27:31.185Z,326.95
2023-03-20T15:29:11.521Z,327
2023-03-20T15:30:51.960Z,327
2023-03-20T15:32:32.386Z,326.983
2023-03-20T15:34:12.743Z,326.983
2023-03-20T15:35:53.382Z,326.983
2023-03-20T15:37:33.600Z,326.983
2023-03-20T15:39:14.062Z,326.983
2023-03-20T15:40:55.009Z,326.983
2023-03-20T15:42:34.847Z,327
2023-03-20T15:44:15.270Z,326.983
2023-03-20T15:46:14.214Z,326.983
2023-03-20T15:47:36.214Z,326.983
2023-03-20T15:49:16.554Z,327
2023-03-20T15:50:56.931Z,326.983
2023-03-20T15:52:37.290Z,327.05
2023-03-20T15:54:17.730Z,327.017
2023-03-20T15:56:14.903Z,327
2023-03-20T15:57:38.639Z,327.017
2023-03-20T15:59:19.058Z,327
2023-03-20T16:01:02.492Z,327.017
2023-03-20T16:02:39.884Z,327
2023-03-20T16:04:20.358Z,327.017
2023-03-20T16:06:00.806Z,327.017
2023-03-20T16:07:44.311Z,327.017
2023-03-20T16:09:21.687Z,327.017
2023-03-20T16:11:02.139Z,327.017
2023-03-20T16:12:42.547Z,327.05
2023-03-20T16:14:22.926Z,327.017
2023-03-20T16:16:03.456Z,327.017
2023-03-20T16:17:43.779Z,327.05
2023-03-20T16:19:24.227Z,327.017
2023-03-20T16:21:04.634Z,327.017
2023-03-20T16:22:45.102Z,327.017
2023-03-20T16:24:25.556Z,327.017
2023-03-20T16:26:05.951Z,327.05
2023-03-20T16:27:46.362Z,327.067
2023-03-20T16:29:26.771Z,327
2023-03-20T16:31:09.127Z,327.067
2023-03-20T16:32:47.659Z,327.067
2023-03-20T16:34:27.998Z,327.05
2023-03-20T16:36:08.512Z,327.017
2023-03-20T16:37:48.838Z,327.05
2023-03-20T16:39:32.342Z,327.05
2023-03-20T16:41:09.839Z,327.05
2023-03-20T16:42:50.105Z,327.05
2023-03-20T16:44:30.488Z,327.05
2023-03-20T16:46:10.838Z,327.05
2023-03-20T16:47:54.189Z,327.067
2023-03-20T16:49:31.534Z,327.017
2023-03-20T16:51:11.974Z,327.05
2023-03-20T16:52:52.337Z,327.05
2023-03-20T16:54:32.651Z,327.05
2023-03-20T16:56:12.979Z,327.067
2023-03-20T16:57:53.202Z,327.05
2023-03-20T16:59:33.538Z,327.05
2023-03-20T17:01:13.957Z,327.1
2023-03-20T17:02:54.240Z,327.1
2023-03-20T17:04:34.739Z,327.05
2023-03-20T17:06:15.067Z,327.05
2023-03-20T17:07:55.480Z,327.067
2023-03-20T17:09:36.011Z,327.067
2023-03-20T17:11:16.272Z,327.1
2023-03-20T17:12:56.656Z,327.067
2023-03-20T17:14:37.005Z,327.067
2023-03-20T17:16:17.441Z,327.1
2023-03-20T17:17:57.860Z,327.067
2023-03-20T17:19:38.243Z,327.067
2023-03-20T17:21:18.696Z,327.1
2023-03-20T17:23:00.115Z,327.067
2023-03-20T17:24:39.433Z,327.1
2023-03-20T17:26:22.933Z,327.1
2023-03-20T17:28:00.273Z,327.067
2023-03-20T17:29:40.722Z,327.067
2023-03-20T17:31:21.182Z,327.067
2023-03-20T17:33:01.452Z,327.067
2023-03-20T17:34:41.829Z,327.067
2023-03-20T17:36:22.225Z,327.1
2023-03-20T17:38:02.576Z,327.1
2023-03-20T17:39:43.022Z,327.067
2023-03-20T17:41:23.343Z,327.1
2023-03-20T17:43:03.837Z,327.1
2023-03-20T17:44:44.128Z,327.067
2023-03-20T17:46:24.509Z,327.067
2023-03-20T17:48:04.903Z,327.15
2023-03-20T17:49:45.277Z,327.1
2023-03-20T17:51:25.618Z,327.117
2023-03-20T17:53:06.076Z,327.15
2023-03-20T17:54:46.376Z,327.15
2023-03-20T17:56:29.281Z,327.15
2023-03-20T17:58:07.030Z,327.15
2023-03-20T17:59:47.348Z,327.15
2023-03-20T18:01:29.803Z,327.15
2023-03-20T18:03:08.172Z,327.167
2023-03-20T18:04:48.497Z,327.167
2023-03-20T18:06:28.845Z,327.167
2023-03-20T18:08:12.348Z,327.167
2023-03-20T18:09:49.677Z,327.15
2023-03-20T18:11:30.132Z,327.167
2023-03-20T18:13:10.437Z,327.15
2023-03-20T18:14:50.765Z,327.15
2023-03-20T18:16:31.159Z,327.167
2023-03-20T18:18:11.619Z,327.167
2023-03-20T18:19:51.880Z,327.183
2023-03-20T18:21:32.276Z,327.183
2023-03-20T18:23:12.734Z,327.167
2023-03-20T18:24:53.130Z,327.183
2023-03-20T18:26:33.491Z,327.167
2023-03-20T18:28:13.935Z,327.167
2023-03-20T18:29:54.363Z,327.167
2023-03-20T18:31:34.829Z,327.183
2023-03-20T18:33:15.264Z,327.167
2023-03-20T18:34:58.630Z,327.167
2023-03-20T18:36:35.928Z,327.167
2023-03-20T18:38:16.354Z,327.183
2023-03-20T18:39:56.757Z,327.217
2023-03-20T18:41:37.203Z,327.183
2023-03-20T18:43:17.534Z,327.183
2023-03-20T18:44:57.938Z,327.167
2023-03-20T18:46:38.360Z,327.167
2023-03-20T18:48:21.752Z,327.167
2023-03-20T18:49:59.095Z,327.183
2023-03-20T18:51:39.591Z,327.183
2023-03-20T18:53:19.983Z,327.183
2023-03-20T18:55:00.385Z,327.217
2023-03-20T18:56:43.901Z,327.167
2023-03-20T18:58:21.152Z,327.183
2023-03-20T19:00:01.530Z,327.183
2023-03-20T19:01:41.904Z,327.167
2023-03-20T19:03:22.216Z,327.233
2023-03-20T19:05:02.582Z,327.217
2023-03-20T19:06:42.898Z,327.217
2023-03-20T19:08:23.235Z,327.233
2023-03-20T19:10:03.634Z,327.217
2023-03-20T19:11:43.942Z,327.233
2023-03-20T19:13:24.312Z,327.233
2023-03-20T19:15:04.696Z,327.217
2023-03-20T19:16:45.156Z,327.217
2023-03-20T19:18:25.539Z,327.233
2023-03-20T19:20:05.913Z,327.217
2023-03-20T19:21:46.358Z,327.183
2023-03-20T19:23:26.776Z,327.217
2023-03-20T19:25:07.148Z,327.217
2023-03-20T19:26:47.475Z,327.183
2023-03-20T19:28:38.835Z,327.217
2023-03-20T19:30:08.291Z,327.217
2023-03-20T19:31:48.696Z,327.217
2023-03-20T19:33:29.080Z,327.267
2023-03-20T19:36:49.827Z,327.233
2023-03-20T19:38:30.162Z,327.217
2023-03-20T19:40:10.579Z,327.233
2023-03-20T19:41:51.053Z,327.267
2023-03-20T19:43:32.382Z,327.217
2023-03-20T19:45:11.855Z,327.233
2023-03-20T19:46:52.258Z,327.267
2023-03-20T19:48:47.080Z,327.233
2023-03-20T19:50:12.982Z,327.283
2023-03-20T19:51:53.351Z,327.267
2023-03-20T19:53:33.764Z,327.233
2023-03-20T19:55:14.093Z,327.267
2023-03-20T19:56:54.463Z,327.233
2023-03-20T19:58:34.953Z,327.267
2023-03-20T20:01:55.705Z,327.267
2023-03-20T20:03:35.799Z,327.233
2023-03-20T20:05:16.125Z,327.233
2023-03-20T20:07:26.296Z,327.267
2023-03-20T20:08:46.953Z,327.267
2023-03-20T20:10:17.038Z,327.317
2023-03-20T20:11:57.331Z,327.283
2023-03-20T20:13:47.094Z,327.283
2023-03-20T20:15:17.924Z,327.267
2023-03-20T20:16:58.262Z,327.283
2023-03-20T20:18:38.500Z,327.283
2023-03-20T20:20:20.603Z,327.283
2023-03-20T20:22:24.789Z,327.283
2023-03-20T20:23:39.610Z,327.283
2023-03-20T20:25:19.990Z,327.283
2023-03-20T20:27:15.900Z,327.283
2023-03-20T20:28:40.904Z,327.267
2023-03-20T20:30:21.435Z,327.333
2023-03-20T20:32:04.910Z,327.317
2023-03-20T20:33:42.816Z,327.283
2023-03-20T20:35:43.913Z,327.317
2023-03-20T20:38:50.860Z,327.317